sensor_id;sensor_type;location;lat;lon;timestamp;pressure;altitude;pressure_sealevel;temperature;humidity
44839;BME280;30576;42.098;24.876;2023-06-26T00:01:57;99172.06;;;23.35;71.84
44839;BME280;30576;42.098;24.876;2023-06-26T00:04:22;99207.38;;;23.54;72.08
44839;BME280;30576;42.098;24.876;2023-06-26T00:06:48;99210.13;;;23.41;72.24
44839;BME280;30576;42.098;24.876;2023-06-26T00:09:13;99195.09;;;23.39;71.55
44839;BME280;30576;42.098;24.876;2023-06-26T00:11:39;99218.00;;;23.56;71.84
44839;BME280;30576;42.098;24.876;2023-06-26T00:14:04;99190.53;;;23.39;71.68
44839;BME280;30576;42.098;24.876;2023-06-26T00:16:30;99199.66;;;23.26;72.02
44839;BME280;30576;42.098;24.876;2023-06-26T00:18:56;99198.25;;;23.33;71.64
44839;BME280;30576;42.098;24.876;2023-06-26T00:21:21;99170.38;;;23.10;71.62
44839;BME280;30576;42.098;24.876;2023-06-26T00:23:47;99209.22;;;23.30;71.42
44839;BME280;30576;42.098;24.876;2023-06-26T00:28:38;99222.59;;;23.42;71.19
44839;BME280;30576;42.098;24.876;2023-06-26T00:31:04;99197.31;;;23.21;71.00
44839;BME280;30576;42.098;24.876;2023-06-26T00:33:29;99198.28;;;23.20;70.61
44839;BME280;30576;42.098;24.876;2023-06-26T00:35:55;99215.63;;;23.40;70.56
44839;BME280;30576;42.098;24.876;2023-06-26T00:38:20;99203.16;;;23.39;70.65
44839;BME280;30576;42.098;24.876;2023-06-26T00:40:46;99208.59;;;23.62;70.01
44839;BME280;30576;42.098;24.876;2023-06-26T00:43:12;99199.78;;;23.24;70.70
44839;BME280;30576;42.098;24.876;2023-06-26T00:45:37;99193.91;;;23.06;71.38
44839;BME280;30576;42.098;24.876;2023-06-26T00:48:03;99226.13;;;23.32;71.34
44839;BME280;30576;42.098;24.876;2023-06-26T00:50:29;99205.16;;;23.24;70.89
44839;BME280;30576;42.098;24.876;2023-06-26T00:52:54;99191.47;;;23.27;71.04
44839;BME280;30576;42.098;24.876;2023-06-26T00:55:26;99214.66;;;23.41;70.63
44839;BME280;30576;42.098;24.876;2023-06-26T00:57:51;99214.75;;;23.39;71.54
44839;BME280;30576;42.098;24.876;2023-06-26T01:00:17;99211.47;;;23.36;71.77
44839;BME280;30576;42.098;24.876;2023-06-26T01:02:43;99202.91;;;23.42;71.24
44839;BME280;30576;42.098;24.876;2023-06-26T01:05:09;99206.81;;;23.38;71.70
44839;BME280;30576;42.098;24.876;2023-06-26T01:07:38;99213.16;;;23.37;71.99
44839;BME280;30576;42.098;24.876;2023-06-26T01:10:05;99217.66;;;23.25;72.09
44839;BME280;30576;42.098;24.876;2023-06-26T01:12:33;99211.16;;;23.28;71.97
44839;BME280;30576;42.098;24.876;2023-06-26T01:14:59;99206.47;;;23.18;71.78
44839;BME280;30576;42.098;24.876;2023-06-26T01:17:26;99216.88;;;23.23;72.20
44839;BME280;30576;42.098;24.876;2023-06-26T01:20:00;99188.41;;;23.07;72.25
44839;BME280;30576;42.098;24.876;2023-06-26T01:23:03;99209.47;;;23.27;72.08
44839;BME280;30576;42.098;24.876;2023-06-26T01:28:18;99204.47;;;23.09;73.00
44839;BME280;30576;42.098;24.876;2023-06-26T01:30:45;99191.09;;;23.07;72.77
44839;BME280;30576;42.098;24.876;2023-06-26T01:33:12;99201.63;;;23.23;72.53
44839;BME280;30576;42.098;24.876;2023-06-26T01:35:39;99195.59;;;23.20;72.37
44839;BME280;30576;42.098;24.876;2023-06-26T01:38:19;99183.84;;;22.97;73.23
44839;BME280;30576;42.098;24.876;2023-06-26T01:40:45;99171.03;;;22.76;73.75
44839;BME280;30576;42.098;24.876;2023-06-26T01:52:23;99162.03;;;22.64;74.49
44839;BME280;30576;42.098;24.876;2023-06-26T01:57:42;99175.25;;;22.67;74.56
44839;BME280;30576;42.098;24.876;2023-06-26T02:00:09;99150.75;;;22.59;74.92
44839;BME280;30576;42.098;24.876;2023-06-26T02:02:36;99188.22;;;22.74;74.72
44839;BME280;30576;42.098;24.876;2023-06-26T02:05:02;99182.75;;;22.75;74.83
44839;BME280;30576;42.098;24.876;2023-06-26T02:07:28;99192.13;;;22.69;74.95
44839;BME280;30576;42.098;24.876;2023-06-26T02:09:53;99145.66;;;22.43;75.12
44839;BME280;30576;42.098;24.876;2023-06-26T02:12:19;99187.31;;;22.62;75.27
44839;BME280;30576;42.098;24.876;2023-06-26T02:14:44;99183.19;;;22.69;75.31
44839;BME280;30576;42.098;24.876;2023-06-26T02:17:10;99184.84;;;22.59;75.74
44839;BME280;30576;42.098;24.876;2023-06-26T02:19:35;99175.97;;;22.45;75.61
44839;BME280;30576;42.098;24.876;2023-06-26T02:22:01;99202.00;;;22.69;75.54
44839;BME280;30576;42.098;24.876;2023-06-26T02:24:26;99184.09;;;22.57;75.19
44839;BME280;30576;42.098;24.876;2023-06-26T02:26:55;99170.88;;;22.53;75.78
44839;BME280;30576;42.098;24.876;2023-06-26T02:29:22;99193.94;;;22.69;75.88
44839;BME280;30576;42.098;24.876;2023-06-26T02:31:47;99203.63;;;22.71;75.52
44839;BME280;30576;42.098;24.876;2023-06-26T02:34:14;99202.34;;;22.64;76.42
44839;BME280;30576;42.098;24.876;2023-06-26T02:36:39;99177.13;;;22.41;76.74
44839;BME280;30576;42.098;24.876;2023-06-26T02:39:05;99195.84;;;22.43;76.68
44839;BME280;30576;42.098;24.876;2023-06-26T02:41:31;99177.25;;;22.27;77.00
44839;BME280;30576;42.098;24.876;2023-06-26T02:43:56;99189.00;;;22.39;76.76
44839;BME280;30576;42.098;24.876;2023-06-26T02:46:22;99178.75;;;22.18;77.55
44839;BME280;30576;42.098;24.876;2023-06-26T02:48:47;99195.41;;;22.49;76.89
44839;BME280;30576;42.098;24.876;2023-06-26T02:51:12;99177.91;;;22.43;76.21
44839;BME280;30576;42.098;24.876;2023-06-26T02:53:38;99179.81;;;22.41;76.69
44839;BME280;30576;42.098;24.876;2023-06-26T02:56:04;99191.34;;;22.43;77.18
44839;BME280;30576;42.098;24.876;2023-06-26T02:58:29;99197.88;;;22.52;77.02
44839;BME280;30576;42.098;24.876;2023-06-26T03:00:55;99182.84;;;22.49;76.43
44839;BME280;30576;42.098;24.876;2023-06-26T03:03:21;99200.50;;;22.78;75.49
44839;BME280;30576;42.098;24.876;2023-06-26T03:05:47;99187.28;;;22.75;75.07
44839;BME280;30576;42.098;24.876;2023-06-26T03:08:12;99189.34;;;22.71;75.14
44839;BME280;30576;42.098;24.876;2023-06-26T03:10:38;99187.22;;;22.63;75.29
44839;BME280;30576;42.098;24.876;2023-06-26T03:13:03;99181.44;;;22.81;74.79
44839;BME280;30576;42.098;24.876;2023-06-26T03:15:29;99167.84;;;22.58;75.53
44839;BME280;30576;42.098;24.876;2023-06-26T03:17:54;99190.34;;;22.81;75.08
44839;BME280;30576;42.098;24.876;2023-06-26T03:20:19;99207.69;;;23.01;74.89
44839;BME280;30576;42.098;24.876;2023-06-26T03:22:45;99200.09;;;22.95;75.21
44839;BME280;30576;42.098;24.876;2023-06-26T03:25:10;99208.16;;;22.95;75.12
44839;BME280;30576;42.098;24.876;2023-06-26T03:27:36;99199.81;;;22.87;75.37
44839;BME280;30576;42.098;24.876;2023-06-26T03:30:01;99190.91;;;22.86;75.29
44839;BME280;30576;42.098;24.876;2023-06-26T03:32:27;99205.13;;;22.76;75.58
44839;BME280;30576;42.098;24.876;2023-06-26T03:34:52;99217.06;;;23.09;75.35
44839;BME280;30576;42.098;24.876;2023-06-26T03:37:21;99175.03;;;22.95;74.23
44839;BME280;30576;42.098;24.876;2023-06-26T03:39:47;99223.19;;;23.11;75.04
44839;BME280;30576;42.098;24.876;2023-06-26T03:42:12;99201.25;;;23.04;75.21
44839;BME280;30576;42.098;24.876;2023-06-26T03:44:38;99209.19;;;23.05;75.72
44839;BME280;30576;42.098;24.876;2023-06-26T03:47:03;99198.50;;;22.93;76.22
44839;BME280;30576;42.098;24.876;2023-06-26T03:49:29;99212.44;;;23.11;75.41
44839;BME280;30576;42.098;24.876;2023-06-26T03:51:54;99183.72;;;22.98;75.02
44839;BME280;30576;42.098;24.876;2023-06-26T03:54:20;99214.41;;;22.96;74.90
44839;BME280;30576;42.098;24.876;2023-06-26T03:56:45;99169.00;;;22.67;75.93
44839;BME280;30576;42.098;24.876;2023-06-26T03:59:12;99147.69;;;22.52;76.19
44839;BME280;30576;42.098;24.876;2023-06-26T04:01:38;99209.66;;;22.99;75.33
44839;BME280;30576;42.098;24.876;2023-06-26T04:04:03;99168.44;;;22.75;75.81
44839;BME280;30576;42.098;24.876;2023-06-26T04:06:29;99215.38;;;22.95;76.17
44839;BME280;30576;42.098;24.876;2023-06-26T04:08:57;99205.00;;;23.14;74.84
44839;BME280;30576;42.098;24.876;2023-06-26T04:11:22;99202.41;;;23.37;73.95
44839;BME280;30576;42.098;24.876;2023-06-26T04:13:48;99191.28;;;23.41;72.98
44839;BME280;30576;42.098;24.876;2023-06-26T04:16:13;99191.81;;;23.47;72.96
44839;BME280;30576;42.098;24.876;2023-06-26T04:18:39;99206.44;;;23.67;72.17
44839;BME280;30576;42.098;24.876;2023-06-26T04:21:06;99190.41;;;23.76;72.09
44839;BME280;30576;42.098;24.876;2023-06-26T04:23:32;99214.47;;;24.02;72.28
44839;BME280;30576;42.098;24.876;2023-06-26T04:25:58;99201.38;;;23.98;72.32
44839;BME280;30576;42.098;24.876;2023-06-26T04:28:24;99193.78;;;24.14;71.64
44839;BME280;30576;42.098;24.876;2023-06-26T04:30:50;99198.81;;;24.30;71.02
44839;BME280;30576;42.098;24.876;2023-06-26T04:33:15;99187.78;;;24.44;70.17
44839;BME280;30576;42.098;24.876;2023-06-26T04:35:41;99184.34;;;24.65;69.38
44839;BME280;30576;42.098;24.876;2023-06-26T04:38:06;99188.50;;;24.69;68.54
44839;BME280;30576;42.098;24.876;2023-06-26T04:40:32;99206.81;;;25.09;68.33
44839;BME280;30576;42.098;24.876;2023-06-26T04:42:57;99201.47;;;24.98;67.58
44839;BME280;30576;42.098;24.876;2023-06-26T04:45:23;99181.56;;;24.99;69.36
44839;BME280;30576;42.098;24.876;2023-06-26T04:47:48;99186.16;;;25.19;67.76
44839;BME280;30576;42.098;24.876;2023-06-26T04:50:14;99189.06;;;25.28;66.59
44839;BME280;30576;42.098;24.876;2023-06-26T04:52:39;99209.31;;;25.22;67.30
44839;BME280;30576;42.098;24.876;2023-06-26T04:55:05;99218.16;;;25.35;66.77
44839;BME280;30576;42.098;24.876;2023-06-26T04:57:30;99213.78;;;25.12;67.45
44839;BME280;30576;42.098;24.876;2023-06-26T04:59:56;99209.03;;;24.93;66.99
44839;BME280;30576;42.098;24.876;2023-06-26T05:02:21;99194.63;;;24.71;67.32
44839;BME280;30576;42.098;24.876;2023-06-26T05:04:47;99205.53;;;24.70;67.46
44839;BME280;30576;42.098;24.876;2023-06-26T05:07:13;99222.53;;;24.93;67.17
44839;BME280;30576;42.098;24.876;2023-06-26T05:09:39;99213.94;;;25.10;66.37
44839;BME280;30576;42.098;24.876;2023-06-26T05:12:04;99260.38;;;25.36;66.94
44839;BME280;30576;42.098;24.876;2023-06-26T05:14:30;99244.69;;;25.30;65.16
44839;BME280;30576;42.098;24.876;2023-06-26T05:16:55;99248.38;;;25.07;66.18
44839;BME280;30576;42.098;24.876;2023-06-26T05:19:21;99232.44;;;25.03;65.14
44839;BME280;30576;42.098;24.876;2023-06-26T05:21:47;99214.59;;;24.80;66.49
44839;BME280;30576;42.098;24.876;2023-06-26T05:24:15;99240.00;;;25.21;66.03
44839;BME280;30576;42.098;24.876;2023-06-26T05:26:41;99235.22;;;25.25;64.42
44839;BME280;30576;42.098;24.876;2023-06-26T05:29:07;99243.91;;;25.28;64.92
44839;BME280;30576;42.098;24.876;2023-06-26T05:31:33;99247.69;;;24.93;63.83
44839;BME280;30576;42.098;24.876;2023-06-26T05:34:02;99217.56;;;24.77;63.59
44839;BME280;30576;42.098;24.876;2023-06-26T05:36:29;99249.34;;;25.17;64.03
44839;BME280;30576;42.098;24.876;2023-06-26T05:38:58;99234.09;;;25.38;63.81
44839;BME280;30576;42.098;24.876;2023-06-26T05:41:24;99228.31;;;25.43;63.82
44839;BME280;30576;42.098;24.876;2023-06-26T05:43:49;99231.72;;;25.45;61.80
44839;BME280;30576;42.098;24.876;2023-06-26T05:46:15;99261.53;;;25.76;61.53
44839;BME280;30576;42.098;24.876;2023-06-26T05:48:40;99232.88;;;25.85;62.57
44839;BME280;30576;42.098;24.876;2023-06-26T05:51:07;99200.53;;;25.52;60.97
44839;BME280;30576;42.098;24.876;2023-06-26T05:53:33;99224.03;;;25.62;61.05
44839;BME280;30576;42.098;24.876;2023-06-26T05:55:59;99235.69;;;25.41;61.53
44839;BME280;30576;42.098;24.876;2023-06-26T05:58:26;99254.94;;;25.69;62.38
44839;BME280;30576;42.098;24.876;2023-06-26T06:00:55;99255.13;;;25.56;62.94
44839;BME280;30576;42.098;24.876;2023-06-26T06:03:21;99253.69;;;25.52;61.58
44839;BME280;30576;42.098;24.876;2023-06-26T06:05:47;99269.38;;;25.47;61.15
44839;BME280;30576;42.098;24.876;2023-06-26T06:08:12;99259.72;;;25.65;62.49
44839;BME280;30576;42.098;24.876;2023-06-26T06:10:38;99255.72;;;25.60;61.19
44839;BME280;30576;42.098;24.876;2023-06-26T06:13:03;99262.09;;;25.59;60.19
44839;BME280;30576;42.098;24.876;2023-06-26T06:15:29;99240.00;;;25.86;60.31
44839;BME280;30576;42.098;24.876;2023-06-26T06:17:54;99238.53;;;25.82;61.80
44839;BME280;30576;42.098;24.876;2023-06-26T06:20:20;99243.63;;;25.75;60.30
44839;BME280;30576;42.098;24.876;2023-06-26T06:22:45;99237.56;;;25.29;61.40
44839;BME280;30576;42.098;24.876;2023-06-26T06:25:11;99241.63;;;25.12;61.12
44839;BME280;30576;42.098;24.876;2023-06-26T06:27:36;99244.28;;;25.35;61.62
44839;BME280;30576;42.098;24.876;2023-06-26T06:30:02;99254.59;;;25.30;60.15
44839;BME280;30576;42.098;24.876;2023-06-26T06:32:28;99247.84;;;25.35;60.21
44839;BME280;30576;42.098;24.876;2023-06-26T06:34:53;99272.09;;;25.47;60.36
44839;BME280;30576;42.098;24.876;2023-06-26T06:37:19;99240.66;;;25.02;61.27
44839;BME280;30576;42.098;24.876;2023-06-26T06:39:44;99276.44;;;25.15;60.72
44839;BME280;30576;42.098;24.876;2023-06-26T06:42:09;99265.91;;;25.12;61.71
44839;BME280;30576;42.098;24.876;2023-06-26T06:44:35;99238.94;;;25.12;61.64
44839;BME280;30576;42.098;24.876;2023-06-26T06:47:00;99250.44;;;25.14;61.04
44839;BME280;30576;42.098;24.876;2023-06-26T06:49:26;99259.50;;;25.25;62.40
44839;BME280;30576;42.098;24.876;2023-06-26T06:51:51;99248.72;;;25.25;62.63
44839;BME280;30576;42.098;24.876;2023-06-26T06:54:17;99223.69;;;25.23;61.68
44839;BME280;30576;42.098;24.876;2023-06-26T06:56:43;99252.28;;;25.58;60.72
44839;BME280;30576;42.098;24.876;2023-06-26T06:59:08;99248.91;;;25.77;60.98
44839;BME280;30576;42.098;24.876;2023-06-26T07:01:34;99264.59;;;25.50;61.99
44839;BME280;30576;42.098;24.876;2023-06-26T07:03:59;99233.78;;;25.74;61.26
44839;BME280;30576;42.098;24.876;2023-06-26T07:06:25;99234.34;;;25.89;60.42
44839;BME280;30576;42.098;24.876;2023-06-26T07:08:50;99264.94;;;26.41;60.59
44839;BME280;30576;42.098;24.876;2023-06-26T07:11:16;99229.34;;;26.36;62.37
44839;BME280;30576;42.098;24.876;2023-06-26T07:13:42;99281.59;;;27.18;60.08
44839;BME280;30576;42.098;24.876;2023-06-26T07:16:07;99220.19;;;27.09;56.74
44839;BME280;30576;42.098;24.876;2023-06-26T07:18:37;99275.28;;;27.48;59.97
44839;BME280;30576;42.098;24.876;2023-06-26T07:21:03;99222.22;;;27.56;58.55
44839;BME280;30576;42.098;24.876;2023-06-26T07:23:30;99229.84;;;28.19;54.89
44839;BME280;30576;42.098;24.876;2023-06-26T07:25:55;99212.63;;;28.00;53.59
44839;BME280;30576;42.098;24.876;2023-06-26T07:28:21;99203.88;;;28.54;52.96
44839;BME280;30576;42.098;24.876;2023-06-26T07:30:48;99202.47;;;28.50;51.37
44839;BME280;30576;42.098;24.876;2023-06-26T07:33:13;99241.25;;;28.70;51.46
44839;BME280;30576;42.098;24.876;2023-06-26T07:35:40;99193.63;;;28.48;54.07
44839;BME280;30576;42.098;24.876;2023-06-26T07:38:05;99202.09;;;28.72;50.50
44839;BME280;30576;42.098;24.876;2023-06-26T07:40:30;99204.81;;;29.54;50.39
44839;BME280;30576;42.098;24.876;2023-06-26T07:42:56;99230.44;;;30.14;49.80
44839;BME280;30576;42.098;24.876;2023-06-26T07:45:23;99173.78;;;29.57;46.08
44839;BME280;30576;42.098;24.876;2023-06-26T07:47:49;99199.50;;;30.15;46.74
44839;BME280;30576;42.098;24.876;2023-06-26T07:50:14;99233.19;;;29.78;46.82
44839;BME280;30576;42.098;24.876;2023-06-26T07:52:44;99212.41;;;29.87;43.83
44839;BME280;30576;42.098;24.876;2023-06-26T07:55:10;99238.59;;;30.14;43.72
44839;BME280;30576;42.098;24.876;2023-06-26T07:57:36;99226.03;;;30.21;42.32
44839;BME280;30576;42.098;24.876;2023-06-26T08:00:02;99189.50;;;29.89;43.24
44839;BME280;30576;42.098;24.876;2023-06-26T08:02:27;99213.81;;;29.91;42.57
44839;BME280;30576;42.098;24.876;2023-06-26T08:04:54;99245.63;;;30.25;44.37
44839;BME280;30576;42.098;24.876;2023-06-26T08:07:19;99218.75;;;29.95;44.14
44839;BME280;30576;42.098;24.876;2023-06-26T08:09:45;99207.34;;;30.44;44.91
44839;BME280;30576;42.098;24.876;2023-06-26T08:12:10;99245.59;;;30.77;42.30
44839;BME280;30576;42.098;24.876;2023-06-26T08:14:36;99205.88;;;30.58;42.51
44839;BME280;30576;42.098;24.876;2023-06-26T08:17:01;99222.81;;;31.54;40.18
44839;BME280;30576;42.098;24.876;2023-06-26T08:19:27;99209.31;;;31.11;41.03
44839;BME280;30576;42.098;24.876;2023-06-26T08:21:52;99211.56;;;31.57;45.45
44839;BME280;30576;42.098;24.876;2023-06-26T08:24:18;99233.88;;;31.85;38.47
44839;BME280;30576;42.098;24.876;2023-06-26T08:26:45;99217.50;;;31.52;42.03
44839;BME280;30576;42.098;24.876;2023-06-26T08:29:11;99196.41;;;31.79;42.45
44839;BME280;30576;42.098;24.876;2023-06-26T08:31:38;99187.75;;;31.59;42.92
44839;BME280;30576;42.098;24.876;2023-06-26T08:34:04;99203.88;;;31.52;40.76
44839;BME280;30576;42.098;24.876;2023-06-26T08:36:31;99214.13;;;31.75;42.89
44839;BME280;30576;42.098;24.876;2023-06-26T08:38:57;99186.88;;;31.67;40.31
44839;BME280;30576;42.098;24.876;2023-06-26T08:41:22;99187.22;;;31.64;40.65
44839;BME280;30576;42.098;24.876;2023-06-26T08:43:48;99201.34;;;30.75;39.53
44839;BME280;30576;42.098;24.876;2023-06-26T08:46:16;99225.97;;;30.65;42.49
44839;BME280;30576;42.098;24.876;2023-06-26T08:48:55;99216.22;;;30.46;43.72
44839;BME280;30576;42.098;24.876;2023-06-26T08:51:25;99189.38;;;29.19;46.34
44839;BME280;30576;42.098;24.876;2023-06-26T08:53:58;99198.41;;;28.91;48.15
44839;BME280;30576;42.098;24.876;2023-06-26T08:56:35;99179.19;;;28.85;51.33
44839;BME280;30576;42.098;24.876;2023-06-26T08:59:01;99241.09;;;28.71;51.34
44839;BME280;30576;42.098;24.876;2023-06-26T09:01:27;99236.16;;;28.19;54.17
44839;BME280;30576;42.098;24.876;2023-06-26T09:03:53;99242.44;;;28.00;55.47
44839;BME280;30576;42.098;24.876;2023-06-26T09:06:18;99251.84;;;27.86;56.85
44839;BME280;30576;42.098;24.876;2023-06-26T09:08:44;99211.81;;;27.51;56.47
44839;BME280;30576;42.098;24.876;2023-06-26T09:11:10;99243.75;;;27.57;55.17
44839;BME280;30576;42.098;24.876;2023-06-26T09:13:35;99208.97;;;27.43;57.32
44839;BME280;30576;42.098;24.876;2023-06-26T09:16:07;99202.66;;;27.81;56.42
44839;BME280;30576;42.098;24.876;2023-06-26T09:18:33;99241.06;;;27.96;58.69
44839;BME280;30576;42.098;24.876;2023-06-26T09:20:59;99220.81;;;28.38;58.28
44839;BME280;30576;42.098;24.876;2023-06-26T09:23:25;99203.50;;;29.04;57.75
44839;BME280;30576;42.098;24.876;2023-06-26T09:25:51;99214.66;;;29.91;55.79
44839;BME280;30576;42.098;24.876;2023-06-26T09:28:17;99216.41;;;30.61;49.69
44839;BME280;30576;42.098;24.876;2023-06-26T09:30:44;99184.97;;;30.59;49.49
44839;BME280;30576;42.098;24.876;2023-06-26T09:33:14;99225.16;;;30.73;46.31
44839;BME280;30576;42.098;24.876;2023-06-26T09:35:41;99183.75;;;31.12;46.60
44839;BME280;30576;42.098;24.876;2023-06-26T09:38:07;99169.97;;;30.55;42.32
44839;BME280;30576;42.098;24.876;2023-06-26T09:40:32;99239.81;;;31.31;40.04
44839;BME280;30576;42.098;24.876;2023-06-26T09:43:09;99200.66;;;31.98;40.82
44839;BME280;30576;42.098;24.876;2023-06-26T09:45:39;99184.91;;;32.25;39.10
44839;BME280;30576;42.098;24.876;2023-06-26T09:48:06;99147.47;;;32.50;37.13
44839;BME280;30576;42.098;24.876;2023-06-26T09:50:34;99188.78;;;32.39;40.29
44839;BME280;30576;42.098;24.876;2023-06-26T09:53:12;99187.34;;;31.29;39.14
44839;BME280;30576;42.098;24.876;2023-06-26T09:55:41;99163.41;;;31.57;38.82
44839;BME280;30576;42.098;24.876;2023-06-26T09:58:12;99184.31;;;31.57;40.40
44839;BME280;30576;42.098;24.876;2023-06-26T10:00:43;99149.47;;;30.34;47.60
44839;BME280;30576;42.098;24.876;2023-06-26T10:03:10;99191.09;;;29.56;51.41
44839;BME280;30576;42.098;24.876;2023-06-26T10:05:35;99225.16;;;28.86;59.66
44839;BME280;30576;42.098;24.876;2023-06-26T10:08:02;99225.34;;;28.47;59.27
44839;BME280;30576;42.098;24.876;2023-06-26T10:10:38;99212.94;;;27.29;56.46
44839;BME280;30576;42.098;24.876;2023-06-26T10:13:11;99177.97;;;26.77;63.34
44839;BME280;30576;42.098;24.876;2023-06-26T10:15:54;99164.75;;;27.03;64.67
44839;BME280;30576;42.098;24.876;2023-06-26T10:18:24;99195.09;;;26.87;67.29
44839;BME280;30576;42.098;24.876;2023-06-26T10:20:56;99230.88;;;27.01;68.23
44839;BME280;30576;42.098;24.876;2023-06-26T10:23:41;99259.94;;;27.18;68.97
44839;BME280;30576;42.098;24.876;2023-06-26T10:26:09;99235.06;;;26.74;65.65
44839;BME280;30576;42.098;24.876;2023-06-26T10:28:37;99264.66;;;27.26;66.61
44839;BME280;30576;42.098;24.876;2023-06-26T10:31:05;99200.97;;;27.12;67.00
44839;BME280;30576;42.098;24.876;2023-06-26T10:33:32;99246.91;;;27.62;66.16
44839;BME280;30576;42.098;24.876;2023-06-26T10:36:13;99211.00;;;27.41;67.18
44839;BME280;30576;42.098;24.876;2023-06-26T10:38:53;99231.75;;;27.89;67.92
44839;BME280;30576;42.098;24.876;2023-06-26T10:41:21;99228.00;;;28.19;63.12
44839;BME280;30576;42.098;24.876;2023-06-26T10:44:08;99203.41;;;28.31;61.47
44839;BME280;30576;42.098;24.876;2023-06-26T10:46:48;99217.88;;;28.87;60.57
44839;BME280;30576;42.098;24.876;2023-06-26T10:49:14;99210.28;;;29.08;56.28
44839;BME280;30576;42.098;24.876;2023-06-26T10:51:46;99172.22;;;29.54;56.82
44839;BME280;30576;42.098;24.876;2023-06-26T10:54:18;99201.63;;;29.41;57.10
44839;BME280;30576;42.098;24.876;2023-06-26T10:56:48;99184.38;;;28.78;55.22
44839;BME280;30576;42.098;24.876;2023-06-26T10:59:19;99225.66;;;29.00;55.14
44839;BME280;30576;42.098;24.876;2023-06-26T11:01:46;99209.97;;;29.21;57.57
44839;BME280;30576;42.098;24.876;2023-06-26T11:07:15;99180.34;;;29.00;58.20
44839;BME280;30576;42.098;24.876;2023-06-26T11:10:01;99200.16;;;28.65;58.81
44839;BME280;30576;42.098;24.876;2023-06-26T11:15:02;99196.03;;;28.51;62.64
44839;BME280;30576;42.098;24.876;2023-06-26T11:17:27;99209.69;;;28.69;58.16
44839;BME280;30576;42.098;24.876;2023-06-26T11:19:54;99175.59;;;28.66;56.19
44839;BME280;30576;42.098;24.876;2023-06-26T11:22:21;99187.47;;;28.83;56.25
44839;BME280;30576;42.098;24.876;2023-06-26T11:24:49;99202.75;;;28.84;55.89
44839;BME280;30576;42.098;24.876;2023-06-26T11:27:18;99183.06;;;29.00;56.56
44839;BME280;30576;42.098;24.876;2023-06-26T11:29:47;99183.19;;;29.26;55.70
44839;BME280;30576;42.098;24.876;2023-06-26T11:32:14;99186.91;;;29.25;54.66
44839;BME280;30576;42.098;24.876;2023-06-26T11:34:39;99206.38;;;29.39;55.43
44839;BME280;30576;42.098;24.876;2023-06-26T11:37:06;99166.94;;;29.53;56.91
44839;BME280;30576;42.098;24.876;2023-06-26T11:39:32;99177.81;;;29.53;54.48
44839;BME280;30576;42.098;24.876;2023-06-26T11:41:59;99168.16;;;30.03;55.68
44839;BME280;30576;42.098;24.876;2023-06-26T11:44:29;99137.66;;;30.17;54.01
44839;BME280;30576;42.098;24.876;2023-06-26T11:46:56;99191.06;;;30.52;52.58
44839;BME280;30576;42.098;24.876;2023-06-26T11:49:22;99182.75;;;30.54;53.97
44839;BME280;30576;42.098;24.876;2023-06-26T11:51:48;99144.25;;;30.41;49.32
44839;BME280;30576;42.098;24.876;2023-06-26T11:54:14;99176.16;;;30.65;47.74
44839;BME280;30576;42.098;24.876;2023-06-26T11:56:40;99186.97;;;30.57;46.81
44839;BME280;30576;42.098;24.876;2023-06-26T11:59:12;99178.81;;;30.57;46.10
44839;BME280;30576;42.098;24.876;2023-06-26T12:01:43;99181.91;;;30.62;45.62
44839;BME280;30576;42.098;24.876;2023-06-26T12:04:14;99176.00;;;30.83;47.41
44839;BME280;30576;42.098;24.876;2023-06-26T12:06:45;99154.00;;;30.60;49.32
44839;BME280;30576;42.098;24.876;2023-06-26T12:09:12;99160.97;;;30.62;48.54
44839;BME280;30576;42.098;24.876;2023-06-26T12:11:41;99190.44;;;30.75;46.71
44839;BME280;30576;42.098;24.876;2023-06-26T12:14:07;99154.81;;;30.52;47.38
44839;BME280;30576;42.098;24.876;2023-06-26T12:16:34;99173.75;;;30.70;47.12
44839;BME280;30576;42.098;24.876;2023-06-26T12:19:02;99159.81;;;30.30;47.51
44839;BME280;30576;42.098;24.876;2023-06-26T12:21:44;99181.56;;;30.30;48.26
44839;BME280;30576;42.098;24.876;2023-06-26T12:24:13;99185.69;;;30.08;51.29
44839;BME280;30576;42.098;24.876;2023-06-26T12:26:42;99152.81;;;29.93;49.29
44839;BME280;30576;42.098;24.876;2023-06-26T12:29:13;99164.72;;;30.27;49.29
44839;BME280;30576;42.098;24.876;2023-06-26T12:31:43;99195.13;;;30.48;48.19
44839;BME280;30576;42.098;24.876;2023-06-26T12:34:23;99177.06;;;30.47;48.78
44839;BME280;30576;42.098;24.876;2023-06-26T12:36:50;99169.97;;;30.20;47.36
44839;BME280;30576;42.098;24.876;2023-06-26T12:39:17;99173.63;;;29.58;49.64
44839;BME280;30576;42.098;24.876;2023-06-26T12:41:54;99172.91;;;29.02;52.89
44839;BME280;30576;42.098;24.876;2023-06-26T12:44:29;99194.59;;;28.29;57.76
44839;BME280;30576;42.098;24.876;2023-06-26T12:47:00;99215.06;;;27.74;60.32
44839;BME280;30576;42.098;24.876;2023-06-26T12:49:38;99237.03;;;27.71;61.38
44839;BME280;30576;42.098;24.876;2023-06-26T12:52:05;99222.22;;;27.75;59.02
44839;BME280;30576;42.098;24.876;2023-06-26T12:54:31;99211.69;;;27.62;58.84
44839;BME280;30576;42.098;24.876;2023-06-26T12:56:57;99243.06;;;27.55;57.40
44839;BME280;30576;42.098;24.876;2023-06-26T12:59:23;99230.03;;;27.29;58.22
44839;BME280;30576;42.098;24.876;2023-06-26T13:01:49;99228.53;;;26.86;60.61
44839;BME280;30576;42.098;24.876;2023-06-26T13:04:15;99202.03;;;26.70;62.45
44839;BME280;30576;42.098;24.876;2023-06-26T13:06:41;99230.19;;;26.68;61.60
44839;BME280;30576;42.098;24.876;2023-06-26T13:09:06;99227.78;;;26.34;63.30
44839;BME280;30576;42.098;24.876;2023-06-26T13:11:32;99231.88;;;26.28;63.47
44839;BME280;30576;42.098;24.876;2023-06-26T13:13:59;99244.47;;;26.49;64.05